createdAt,value
2022-08-29T00:01:51.603Z,42.13
2022-08-29T00:04:19.178Z,42.40
2022-08-29T00:06:46.310Z,42.28
2022-08-29T00:09:13.661Z,42.22
2022-08-29T00:11:43.448Z,42.00
2022-08-29T00:14:21.045Z,42.67
2022-08-29T00:16:51.240Z,42.50
2022-08-29T00:19:18.430Z,40.35
2022-08-29T00:21:52.925Z,41.60
2022-08-29T00:24:20.475Z,42.65
2022-08-29T00:26:48.620Z,39.85
2022-08-29T00:29:15.766Z,41.70
2022-08-29T00:31:42.946Z,42.72
2022-08-29T00:34:10.187Z,41.00
2022-08-29T00:36:37.810Z,41.55
2022-08-29T00:39:05.542Z,41.13
2022-08-29T00:41:36.480Z,40.42
2022-08-29T00:44:04.406Z,40.95
2022-08-29T00:46:43.694Z,40.95
2022-08-29T00:49:31.411Z,40.15
2022-08-29T00:52:04.071Z,41.45
2022-08-29T00:54:31.794Z,41.72
2022-08-29T00:56:59.895Z,39.75
2022-08-29T00:59:35.847Z,42.40
2022-08-29T01:02:05.078Z,40.75
2022-08-29T01:04:33.462Z,40.78
2022-08-29T01:07:01.002Z,42.47
2022-08-29T01:09:29.194Z,41.58
2022-08-29T01:12:15.420Z,41.25
2022-08-29T01:14:52.534Z,40.28
2022-08-29T01:17:53.383Z,40.75
2022-08-29T01:20:32.314Z,41.60
2022-08-29T01:23:18.398Z,43.22
2022-08-29T01:25:49.176Z,43.38
2022-08-29T01:28:32.603Z,43.55
2022-08-29T01:31:05.336Z,41.38
2022-08-29T01:33:41.003Z,43.30
2022-08-29T01:36:11.506Z,46.33
2022-08-29T01:38:40.036Z,44.33
2022-08-29T01:41:07.522Z,43.15
2022-08-29T01:43:46.825Z,45.45
2022-08-29T01:46:17.021Z,45.75
2022-08-29T01:48:45.748Z,42.58
2022-08-29T01:51:13.823Z,42.17
2022-08-29T01:53:41.985Z,43.20
2022-08-29T01:56:19.361Z,42.45
2022-08-29T01:58:48.598Z,41.95
2022-08-29T02:01:22.796Z,41.25
2022-08-29T02:03:52.707Z,42.45
2022-08-29T02:06:20.418Z,41.45
2022-08-29T02:08:48.001Z,42.83
2022-08-29T02:11:16.895Z,40.95
2022-08-29T02:13:48.231Z,41.30
2022-08-29T02:16:16.054Z,41.53
2022-08-29T02:18:43.648Z,43.00
2022-08-29T02:21:16.000Z,41.80
2022-08-29T02:23:44.331Z,40.58
2022-08-29T02:26:11.529Z,40.17
2022-08-29T02:28:38.808Z,39.88
2022-08-29T02:31:06.730Z,38.88
2022-08-29T02:33:34.049Z,37.33
2022-08-29T02:36:02.333Z,36.22
2022-08-29T02:38:29.575Z,36.25
2022-08-29T02:40:57.018Z,33.80
2022-08-29T02:43:25.648Z,33.20
2022-08-29T02:45:53.021Z,31.63
2022-08-29T02:48:21.528Z,32.67
2022-08-29T02:50:51.667Z,30.38
2022-08-29T02:53:21.136Z,29.38
2022-08-29T02:55:49.065Z,29.88
2022-08-29T02:58:16.536Z,29.60
2022-08-29T03:00:44.390Z,29.20
2022-08-29T03:03:11.868Z,28.27
2022-08-29T03:05:39.569Z,26.48
2022-08-29T03:08:10.874Z,26.50
2022-08-29T03:10:38.482Z,26.58
2022-08-29T03:13:06.224Z,25.95
2022-08-29T03:15:33.387Z,25.63
2022-08-29T03:18:01.353Z,25.13
2022-08-29T03:20:28.579Z,24.90
2022-08-29T03:22:56.186Z,24.63
2022-08-29T03:25:24.595Z,24.77
2022-08-29T03:27:53.298Z,23.67
2022-08-29T03:30:21.090Z,23.15
2022-08-29T03:32:51.338Z,23.30
2022-08-29T03:35:19.765Z,22.95
2022-08-29T03:37:47.044Z,23.38
2022-08-29T03:40:14.912Z,22.30
2022-08-29T03:42:43.082Z,23.08
2022-08-29T03:45:14.230Z,23.08
2022-08-29T03:47:42.208Z,23.10
2022-08-29T03:50:10.482Z,22.75
2022-08-29T03:52:37.792Z,23.00
2022-08-29T03:55:07.907Z,22.67
2022-08-29T03:57:35.054Z,23.08
2022-08-29T04:00:10.807Z,22.23
2022-08-29T04:02:38.521Z,20.70
2022-08-29T04:05:08.823Z,21.60
2022-08-29T04:07:52.578Z,25.60
2022-08-29T04:10:24.066Z,23.75
2022-08-29T04:12:54.666Z,22.75
2022-08-29T04:15:23.615Z,22.75
2022-08-29T04:17:54.503Z,21.88
2022-08-29T04:20:25.571Z,20.60
2022-08-29T04:22:55.047Z,20.77
2022-08-29T04:25:23.200Z,19.95
2022-08-29T04:27:50.574Z,19.27
2022-08-29T04:30:21.031Z,18.95
2022-08-29T04:32:48.127Z,18.25
2022-08-29T04:35:16.403Z,17.77
2022-08-29T04:37:44.039Z,17.50
2022-08-29T04:40:15.868Z,19.05
2022-08-29T04:42:43.463Z,18.60
2022-08-29T04:45:13.646Z,18.30
2022-08-29T04:47:42.408Z,18.50
2022-08-29T04:50:13.714Z,21.33
2022-08-29T04:52:41.050Z,22.63
2022-08-29T04:55:09.375Z,22.42
2022-08-29T04:57:38.615Z,22.20
2022-08-29T05:00:12.517Z,23.95
2022-08-29T05:02:40.765Z,24.95
2022-08-29T05:05:10.831Z,24.02
2022-08-29T05:07:38.450Z,24.10
2022-08-29T05:10:18.001Z,25.70
2022-08-29T05:12:46.054Z,26.58
2022-08-29T05:15:14.270Z,28.17
2022-08-29T05:17:41.740Z,27.08
2022-08-29T05:20:09.572Z,29.90
2022-08-29T05:22:39.011Z,28.20
2022-08-29T05:25:06.776Z,29.30
2022-08-29T05:27:34.191Z,28.08
2022-08-29T05:30:01.635Z,28.67
2022-08-29T05:32:30.255Z,27.85
2022-08-29T05:34:58.920Z,27.35
2022-08-29T05:37:26.629Z,25.80
2022-08-29T05:39:57.013Z,28.17
2022-08-29T05:42:24.193Z,27.75
2022-08-29T05:44:52.139Z,27.70
2022-08-29T05:47:20.686Z,27.70
2022-08-29T05:49:48.967Z,27.80
2022-08-29T05:52:21.408Z,27.65
2022-08-29T05:54:48.845Z,28.85
2022-08-29T05:57:20.132Z,27.80
2022-08-29T05:59:51.999Z,28.83
2022-08-29T06:02:20.517Z,27.63
2022-08-29T06:04:48.298Z,28.02
2022-08-29T06:07:16.014Z,29.75
2022-08-29T06:09:44.489Z,28.88
2022-08-29T06:12:14.183Z,29.13
2022-08-29T06:14:42.133Z,29.38
2022-08-29T06:17:18.569Z,30.13
2022-08-29T06:19:46.449Z,30.10
2022-08-29T06:22:13.679Z,29.05
2022-08-29T06:24:44.375Z,29.35
2022-08-29T06:27:12.322Z,29.73
2022-08-29T06:29:43.060Z,30.20
2022-08-29T06:32:11.600Z,29.55
2022-08-29T06:34:38.785Z,29.85
2022-08-29T06:37:06.055Z,30.77
2022-08-29T06:39:33.089Z,31.10
2022-08-29T06:42:00.454Z,30.63
2022-08-29T06:44:44.659Z,29.85
2022-08-29T06:47:12.169Z,31.13
2022-08-29T06:49:39.353Z,32.33
2022-08-29T06:52:06.489Z,31.95
2022-08-29T06:54:33.680Z,31.08
2022-08-29T06:57:01.077Z,29.42
2022-08-29T06:59:28.322Z,31.23
2022-08-29T07:01:55.649Z,30.33
2022-08-29T07:04:26.764Z,30.23
2022-08-29T07:06:55.726Z,32.47
2022-08-29T07:09:22.867Z,31.85
2022-08-29T07:11:50.041Z,32.13
2022-08-29T07:14:17.178Z,30.52
2022-08-29T07:16:44.328Z,32.38
2022-08-29T07:19:12.075Z,30.88
2022-08-29T07:21:39.910Z,30.75
2022-08-29T07:24:08.441Z,31.20
2022-08-29T07:26:39.141Z,31.27
2022-08-29T07:29:22.114Z,31.65
2022-08-29T07:31:50.012Z,31.02
2022-08-29T07:34:20.584Z,29.63
2022-08-29T07:36:48.141Z,28.70
2022-08-29T07:39:18.441Z,26.73
2022-08-29T07:41:46.106Z,26.65
2022-08-29T07:44:14.579Z,26.27
2022-08-29T07:46:42.090Z,25.50
2022-08-29T07:49:09.278Z,21.80
2022-08-29T07:51:36.692Z,19.25
2022-08-29T07:54:04.444Z,19.25
2022-08-29T07:56:37.982Z,17.35
2022-08-29T07:59:06.160Z,15.93
2022-08-29T08:01:33.739Z,15.90
2022-08-29T08:04:00.884Z,13.20
2022-08-29T08:06:28.639Z,12.50
2022-08-29T08:08:58.196Z,11.50
2022-08-29T08:11:26.865Z,11.88
2022-08-29T08:13:55.572Z,9.98
2022-08-29T08:16:26.175Z,10.20
2022-08-29T08:18:56.032Z,7.65
2022-08-29T08:21:27.156Z,8.05
2022-08-29T08:23:54.673Z,6.72
2022-08-29T08:26:22.888Z,6.00
2022-08-29T08:28:50.481Z,7.10
2022-08-29T08:31:28.718Z,6.35
2022-08-29T08:34:03.204Z,5.95
2022-08-29T08:36:31.496Z,5.80
2022-08-29T08:39:00.139Z,5.38
2022-08-29T08:41:42.283Z,5.05
2022-08-29T08:44:21.931Z,6.73
2022-08-29T08:46:52.735Z,4.80
2022-08-29T08:49:42.541Z,4.63
2022-08-29T08:52:39.428Z,5.10
2022-08-29T08:55:25.798Z,4.90
2022-08-29T09:01:20.420Z,5.72
2022-08-29T09:04:21.915Z,4.50
2022-08-29T09:07:07.476Z,4.75
2022-08-29T09:10:08.729Z,5.63
2022-08-29T09:12:51.570Z,4.18
2022-08-29T09:15:25.978Z,4.22
2022-08-29T09:18:04.631Z,4.55
2022-08-29T09:20:39.657Z,4.47
2022-08-29T09:23:43.044Z,4.38
2022-08-29T09:26:15.372Z,4.53
2022-08-29T09:28:42.918Z,4.25
2022-08-29T09:31:27.731Z,3.83
2022-08-29T09:34:01.122Z,4.50
2022-08-29T09:36:45.897Z,4.05
2022-08-29T09:39:17.141Z,4.50
2022-08-29T09:41:46.181Z,4.05
2022-08-29T09:44:26.364Z,4.50
2022-08-29T09:47:05.547Z,4.55
2022-08-29T09:49:33.285Z,4.95
2022-08-29T09:52:25.774Z,4.13
2022-08-29T09:54:52.922Z,4.10
2022-08-29T09:57:19.914Z,4.05
2022-08-29T10:00:15.188Z,4.70
2022-08-29T10:02:52.281Z,4.70
2022-08-29T10:05:40.850Z,4.50
2022-08-29T10:08:28.476Z,4.80
2022-08-29T10:11:00.093Z,4.50
2022-08-29T10:13:50.455Z,5.03
2022-08-29T10:16:37.756Z,4.47
2022-08-29T10:19:12.835Z,4.35
2022-08-29T10:22:06.942Z,4.40
2022-08-29T10:24:43.177Z,4.80
2022-08-29T10:27:37.166Z,4.15
2022-08-29T10:30:49.201Z,4.32
2022-08-29T10:33:46.196Z,4.15
2022-08-29T10:36:22.777Z,4.13
2022-08-29T10:38:58.481Z,4.47
2022-08-29T10:42:09.108Z,4.35
2022-08-29T10:45:02.974Z,3.83
2022-08-29T10:47:36.262Z,4.68
2022-08-29T10:50:27.518Z,3.75
2022-08-29T10:53:06.768Z,3.88
2022-08-29T10:56:18.700Z,4.20
2022-08-29T10:59:20.922Z,4.03
2022-08-29T11:02:25.036Z,4.32
2022-08-29T11:04:56.927Z,6.10
2022-08-29T11:07:36.904Z,4.78
2022-08-29T11:10:15.555Z,3.83
2022-08-29T11:12:54.234Z,3.80
2022-08-29T11:15:39.292Z,4.57
2022-08-29T11:18:25.215Z,4.82
2022-08-29T11:20:57.988Z,4.40
2022-08-29T11:23:39.655Z,4.03
2022-08-29T11:26:18.822Z,4.38
2022-08-29T11:29:12.870Z,4.07
2022-08-29T11:31:46.274Z,4.60
2022-08-29T11:34:25.143Z,4.18
2022-08-29T11:37:07.321Z,4.50
2022-08-29T11:39:51.342Z,4.30
2022-08-29T11:45:14.853Z,4.53
2022-08-29T11:47:48.154Z,4.73
2022-08-29T11:50:15.396Z,4.63
2022-08-29T11:52:56.771Z,4.45
2022-08-29T11:55:28.746Z,4.43
2022-08-29T11:58:03.855Z,3.67
2022-08-29T12:00:50.394Z,4.10
2022-08-29T12:03:47.176Z,4.88
2022-08-29T12:06:20.055Z,3.72
2022-08-29T12:09:13.674Z,5.03
2022-08-29T12:11:59.569Z,4.65
2022-08-29T12:14:47.354Z,4.40
2022-08-29T12:17:17.164Z,3.67
2022-08-29T12:20:00.065Z,4.25
2022-08-29T12:22:59.761Z,4.50
2022-08-29T12:26:09.555Z,4.60
2022-08-29T12:28:46.730Z,4.38
2022-08-29T12:31:37.227Z,4.25
2022-08-29T12:34:23.406Z,3.63
2022-08-29T12:37:18.620Z,4.28
2022-08-29T12:39:58.562Z,3.42
2022-08-29T12:42:25.636Z,3.90
2022-08-29T12:45:02.555Z,3.03
2022-08-29T12:47:46.309Z,3.15
2022-08-29T12:53:03.704Z,2.63
2022-08-29T12:55:40.707Z,2.65
2022-08-29T12:58:09.570Z,3.33
2022-08-29T13:00:37.157Z,3.67
2022-08-29T13:03:15.056Z,3.65
2022-08-29T13:05:43.225Z,3.58
2022-08-29T13:08:14.516Z,3.65
2022-08-29T13:10:54.738Z,3.53
2022-08-29T13:13:23.397Z,3.88
2022-08-29T13:15:52.507Z,3.90
2022-08-29T13:18:22.405Z,3.53
2022-08-29T13:21:11.800Z,3.88
2022-08-29T13:23:47.244Z,3.88
2022-08-29T13:26:14.351Z,3.45
2022-08-29T13:29:10.290Z,4.32
2022-08-29T13:31:39.137Z,3.38
2022-08-29T13:34:17.969Z,3.50
2022-08-29T13:37:02.411Z,2.70
2022-08-29T13:39:32.269Z,2.80
2022-08-29T13:42:02.242Z,2.78
2022-08-29T13:44:38.889Z,2.83
2022-08-29T13:47:29.082Z,3.00
2022-08-29T13:50:02.228Z,2.70
2022-08-29T13:52:31.888Z,3.15
2022-08-29T13:54:59.999Z,3.20
2022-08-29T13:57:29.510Z,2.38
2022-08-29T13:59:59.585Z,3.03
2022-08-29T14:02:31.257Z,3.22
2022-08-29T14:04:58.536Z,3.42
2022-08-29T14:07:31.213Z,2.65
2022-08-29T14:12:33.909Z,2.72
2022-08-29T14:15:09.079Z,2.83
2022-08-29T14:17:40.557Z,2.72
2022-08-29T14:20:09.979Z,3.88
2022-08-29T14:22:37.405Z,2.90
2022-08-29T14:25:06.588Z,2.88
2022-08-29T14:27:35.613Z,3.47
2022-08-29T14:30:04.555Z,2.90
2022-08-29T14:32:31.713Z,2.78
2022-08-29T14:34:59.250Z,2.55
2022-08-29T14:37:26.413Z,3.28
2022-08-29T14:39:53.775Z,2.90
2022-08-29T14:42:20.890Z,3.22
2022-08-29T14:44:48.199Z,2.95
2022-08-29T14:47:15.301Z,2.85
2022-08-29T14:49:43.236Z,3.40
2022-08-29T14:52:14.987Z,3.00
2022-08-29T14:54:43.180Z,3.80
2022-08-29T14:57:10.989Z,2.80
2022-08-29T14:59:40.511Z,3.38
2022-08-29T15:02:10.146Z,3.13
2022-08-29T15:04:37.899Z,3.35
2022-08-29T15:07:11.058Z,3.15
2022-08-29T15:09:39.556Z,2.92
2022-08-29T15:12:07.374Z,4.40
2022-08-29T15:14:34.859Z,3.33
2022-08-29T15:17:02.986Z,3.13
2022-08-29T15:20:31.465Z,3.30
2022-08-29T15:22:18.135Z,3.65
2022-08-29T15:24:45.490Z,3.28
2022-08-29T15:27:13.093Z,3.10
2022-08-29T15:29:43.758Z,3.53
2022-08-29T15:32:12.428Z,3.30
2022-08-29T15:34:40.858Z,2.95
2022-08-29T15:37:12.779Z,3.60
2022-08-29T15:39:40.264Z,3.15
2022-08-29T15:42:11.317Z,3.88
2022-08-29T15:44:40.047Z,3.63
2022-08-29T15:47:11.039Z,3.65
2022-08-29T15:49:38.430Z,3.03
2022-08-29T15:52:05.621Z,4.80
2022-08-29T15:54:32.919Z,3.05
2022-08-29T15:57:00.250Z,3.05
2022-08-29T15:59:47.227Z,3.20
2022-08-29T16:02:15.145Z,2.85
2022-08-29T16:04:47.809Z,2.80
2022-08-29T16:07:17.063Z,3.20
2022-08-29T16:09:45.145Z,2.85
2022-08-29T16:12:12.957Z,2.83
2022-08-29T16:14:59.388Z,3.38
2022-08-29T16:17:29.888Z,3.63
2022-08-29T16:19:58.322Z,3.38
2022-08-29T16:22:26.184Z,3.08
2022-08-29T16:24:53.388Z,3.63
2022-08-29T16:27:24.168Z,5.68
2022-08-29T16:29:53.023Z,3.15
2022-08-29T16:32:20.641Z,4.20
2022-08-29T16:34:48.115Z,2.92
2022-08-29T16:37:15.394Z,3.50
2022-08-29T16:39:42.692Z,3.00
2022-08-29T16:42:12.286Z,3.20
2022-08-29T16:44:40.731Z,3.30
2022-08-29T16:47:07.929Z,3.75
2022-08-29T16:49:35.453Z,3.70
2022-08-29T16:52:03.799Z,3.65
2022-08-29T16:54:32.254Z,3.65
2022-08-29T16:56:59.427Z,3.50
2022-08-29T16:59:26.659Z,2.90
2022-08-29T17:01:54.520Z,3.03
2022-08-29T17:04:36.670Z,3.55
2022-08-29T17:07:14.067Z,3.60
2022-08-29T17:09:42.645Z,3.65
2022-08-29T17:12:10.147Z,4.18
2022-08-29T17:14:37.494Z,4.22
2022-08-29T17:17:05.063Z,4.10
2022-08-29T17:19:33.602Z,4.75
2022-08-29T17:22:01.056Z,5.03
2022-08-29T17:24:28.757Z,5.40
2022-08-29T17:26:57.134Z,5.53
2022-08-29T17:29:24.359Z,5.22
2022-08-29T17:31:51.947Z,4.22
2022-08-29T17:34:19.735Z,4.38
2022-08-29T17:36:47.161Z,4.53
2022-08-29T17:39:14.378Z,4.65
2022-08-29T17:41:41.721Z,5.03
2022-08-29T17:44:11.580Z,4.70
2022-08-29T17:46:38.821Z,4.60
2022-08-29T17:49:08.364Z,4.38
2022-08-29T17:51:35.923Z,5.05
2022-08-29T17:54:04.508Z,4.85
2022-08-29T17:56:52.221Z,4.63
2022-08-29T17:59:20.883Z,4.47
2022-08-29T18:01:48.671Z,4.65
2022-08-29T18:04:16.338Z,4.45
2022-08-29T18:06:43.565Z,4.53
2022-08-29T18:09:11.747Z,4.10
2022-08-29T18:11:40.965Z,4.28
2022-08-29T18:14:08.842Z,4.28
2022-08-29T18:16:36.754Z,4.38
2022-08-29T18:19:04.483Z,4.03
2022-08-29T18:21:31.845Z,3.85
2022-08-29T18:24:00.284Z,4.07
2022-08-29T18:26:27.897Z,4.03
2022-08-29T18:28:55.773Z,4.95
2022-08-29T18:31:23.831Z,4.30
2022-08-29T18:34:06.453Z,5.15
2022-08-29T18:36:35.695Z,4.65
2022-08-29T18:39:05.548Z,4.40
2022-08-29T18:41:38.338Z,4.93
2022-08-29T18:44:05.713Z,4.35
2022-08-29T18:46:33.661Z,4.45
2022-08-29T18:49:01.329Z,4.30
2022-08-29T18:51:28.542Z,3.75
2022-08-29T18:53:55.791Z,5.28
2022-08-29T18:56:23.030Z,4.47
2022-08-29T18:58:54.647Z,4.28
2022-08-29T19:01:28.578Z,4.28
2022-08-29T19:03:57.929Z,4.38
2022-08-29T19:06:28.084Z,3.67
2022-08-29T19:08:56.725Z,4.90
2022-08-29T19:11:25.369Z,4.28
2022-08-29T19:13:52.992Z,4.40
2022-08-29T19:16:24.035Z,4.72
2022-08-29T19:18:54.521Z,4.53
2022-08-29T19:21:21.725Z,4.57
2022-08-29T19:23:52.037Z,4.63
2022-08-29T19:26:27.320Z,4.10
2022-08-29T19:28:58.504Z,4.50
2022-08-29T19:31:27.849Z,4.53
2022-08-29T19:33:55.391Z,4.45
2022-08-29T19:36:23.609Z,4.78
2022-08-29T19:38:51.069Z,4.88
2022-08-29T19:41:18.763Z,4.72
2022-08-29T19:43:45.868Z,4.70
2022-08-29T19:46:16.669Z,4.95
2022-08-29T19:48:50.986Z,5.15
2022-08-29T19:51:22.205Z,4.90
2022-08-29T19:53:53.828Z,5.05
2022-08-29T19:56:21.217Z,5.15
2022-08-29T19:58:49.492Z,4.75
2022-08-29T20:01:17.923Z,4.60
2022-08-29T20:03:45.121Z,6.28
2022-08-29T20:06:21.643Z,5.13
2022-08-29T20:08:49.176Z,5.10
2022-08-29T20:11:21.172Z,5.35
2022-08-29T20:13:50.992Z,5.15
2022-08-29T20:16:24.677Z,5.32
2022-08-29T20:18:52.336Z,5.22
2022-08-29T20:21:23.430Z,5.78
2022-08-29T20:23:57.282Z,5.60
2022-08-29T20:26:26.053Z,5.07
2022-08-29T20:28:54.360Z,6.07
2022-08-29T20:31:22.415Z,5.90
2022-08-29T20:33:49.981Z,5.25
2022-08-29T20:36:38.821Z,5.22
2022-08-29T20:39:08.080Z,5.47
2022-08-29T20:41:35.272Z,6.45
2022-08-29T20:44:07.291Z,5.30
2022-08-29T20:46:42.561Z,5.38
2022-08-29T20:49:12.172Z,5.53
2022-08-29T20:51:43.370Z,5.20
2022-08-29T20:54:14.879Z,4.90
2022-08-29T20:56:41.997Z,4.72
2022-08-29T20:59:10.582Z,4.43
2022-08-29T21:01:38.431Z,4.38
2022-08-29T21:04:25.345Z,4.47
2022-08-29T21:06:56.856Z,5.10
2022-08-29T21:09:24.315Z,5.05
2022-08-29T21:11:52.976Z,5.45
2022-08-29T21:14:22.677Z,4.78
2022-08-29T21:16:51.516Z,5.28
2022-08-29T21:19:19.118Z,5.45
2022-08-29T21:21:46.724Z,5.40
2022-08-29T21:24:14.217Z,4.85
2022-08-29T21:26:41.467Z,4.45
2022-08-29T21:29:09.397Z,5.10
2022-08-29T21:31:36.839Z,5.07
2022-08-29T21:34:07.105Z,5.10
2022-08-29T21:36:36.173Z,4.80
2022-08-29T21:39:08.198Z,4.65
2022-08-29T21:41:39.307Z,4.57
2022-08-29T21:44:07.174Z,5.00
2022-08-29T21:46:37.660Z,29.35
2022-08-29T21:49:07.302Z,7.85
2022-08-29T21:51:35.262Z,5.07
2022-08-29T21:54:03.775Z,12.18
2022-08-29T21:56:32.424Z,6.30
2022-08-29T21:59:00.647Z,6.43
2022-08-29T22:01:32.990Z,6.68
2022-08-29T22:04:02.103Z,4.88
2022-08-29T22:06:29.663Z,7.72
2022-08-29T22:08:57.777Z,6.50
2022-08-29T22:11:37.203Z,13.70
2022-08-29T22:14:07.017Z,17.85
2022-08-29T22:16:35.736Z,13.38
2022-08-29T22:19:15.047Z,6.55
2022-08-29T22:21:51.998Z,6.43
2022-08-29T22:24:20.360Z,6.53
2022-08-29T22:26:48.370Z,5.90
2022-08-29T22:29:27.525Z,6.78
2022-08-29T22:31:56.986Z,6.60
2022-08-29T22:34:24.101Z,5.70
2022-08-29T22:36:51.176Z,6.22
2022-08-29T22:39:18.480Z,6.45
2022-08-29T22:41:47.765Z,6.72
2022-08-29T22:47:02.652Z,6.30
2022-08-29T22:49:33.443Z,6.60
2022-08-29T22:52:01.169Z,6.70
2022-08-29T22:54:37.263Z,7.28
2022-08-29T22:57:12.924Z,7.38
2022-08-29T22:59:40.676Z,6.28
2022-08-29T23:02:08.835Z,6.10
2022-08-29T23:04:36.472Z,7.63
2022-08-29T23:07:05.211Z,7.03
2022-08-29T23:09:35.086Z,6.10
2022-08-29T23:12:05.994Z,6.10
2022-08-29T23:14:35.943Z,6.03
2022-08-29T23:17:04.749Z,6.25
2022-08-29T23:19:32.492Z,5.75
2022-08-29T23:22:00.162Z,6.10
2022-08-29T23:24:29.631Z,6.05
2022-08-29T23:26:56.921Z,6.65
2022-08-29T23:29:24.088Z,6.03
2022-08-29T23:31:51.473Z,5.80
2022-08-29T23:34:18.585Z,5.93
2022-08-29T23:36:45.790Z,6.53
2022-08-29T23:39:12.903Z,6.30
2022-08-29T23:41:40.507Z,5.95
2022-08-29T23:44:07.851Z,6.32
2022-08-29T23:46:39.385Z,6.32
2022-08-29T23:49:07.099Z,6.22
2022-08-29T23:51:34.256Z,6.60
2022-08-29T23:54:01.839Z,6.55
2022-08-29T23:56:29.052Z,6.10
2022-08-29T23:58:56.944Z,6.15
